createdAt,value
2023-05-20T00:01:51.021Z,12.70
2023-05-20T00:04:18.486Z,12.60
2023-05-20T00:06:45.850Z,12.70
2023-05-20T00:09:13.089Z,12.70
2023-05-20T00:11:40.212Z,12.70
2023-05-20T00:14:07.509Z,12.60
2023-05-20T00:16:34.934Z,12.60
2023-05-20T00:19:02.140Z,12.60
2023-05-20T00:21:29.840Z,12.60
2023-05-20T00:23:58.963Z,12.60
2023-05-20T00:26:26.941Z,12.70
2023-05-20T00:28:54.054Z,12.60
2023-05-20T00:31:21.805Z,12.70
2023-05-20T00:33:49.126Z,12.70
2023-05-20T00:36:16.195Z,12.70
2023-05-20T00:38:43.383Z,12.80
2023-05-20T00:41:11.212Z,12.70
2023-05-20T00:43:38.331Z,12.80
2023-05-20T00:46:05.532Z,12.80
2023-05-20T00:48:44.479Z,12.70
2023-05-20T00:51:14.708Z,12.70
2023-05-20T00:53:43.733Z,12.70
2023-05-20T00:56:12.131Z,12.70
2023-05-20T00:58:40.689Z,12.70
2023-05-20T01:01:07.874Z,12.70
2023-05-20T01:03:35.802Z,12.70
2023-05-20T01:06:03.765Z,12.70
2023-05-20T01:08:31.353Z,12.70
2023-05-20T01:11:20.746Z,12.70
2023-05-20T01:13:55.828Z,12.60
2023-05-20T01:16:25.192Z,12.60
2023-05-20T01:18:57.430Z,12.60
2023-05-20T01:21:27.572Z,12.60
2023-05-20T01:23:54.993Z,12.70
2023-05-20T01:26:22.260Z,12.70
2023-05-20T01:28:51.282Z,12.70
2023-05-20T01:31:25.053Z,12.70
2023-05-20T01:33:58.528Z,12.70
2023-05-20T01:36:28.681Z,12.70
2023-05-20T01:38:58.123Z,12.80
2023-05-20T01:41:27.413Z,12.70
2023-05-20T01:43:56.501Z,12.70
2023-05-20T01:46:23.658Z,12.70
2023-05-20T01:48:50.951Z,12.60
2023-05-20T01:51:18.063Z,12.50
2023-05-20T01:53:45.694Z,12.50
2023-05-20T01:56:13.402Z,12.50
2023-05-20T01:58:40.710Z,12.50
2023-05-20T02:01:07.756Z,12.60
2023-05-20T02:03:34.859Z,12.50
2023-05-20T02:06:02.055Z,12.50
2023-05-20T02:08:29.254Z,12.50
2023-05-20T02:10:56.256Z,12.50
2023-05-20T02:13:23.359Z,12.50
2023-05-20T02:15:51.916Z,12.40
2023-05-20T02:18:19.045Z,12.50
2023-05-20T02:20:49.693Z,12.50
2023-05-20T02:23:16.872Z,12.40
2023-05-20T02:25:44.425Z,12.50
2023-05-20T02:28:11.472Z,12.50
2023-05-20T02:30:39.447Z,12.50
2023-05-20T02:33:07.211Z,12.50
2023-05-20T02:35:34.889Z,12.50
2023-05-20T02:38:02.062Z,12.60
2023-05-20T02:40:29.127Z,12.60
2023-05-20T02:42:56.068Z,12.60
2023-05-20T02:45:23.048Z,12.60
2023-05-20T02:47:50.465Z,12.60
2023-05-20T02:50:17.854Z,12.50
2023-05-20T02:52:45.771Z,12.50
2023-05-20T02:55:13.026Z,12.50
2023-05-20T02:57:40.078Z,12.50
2023-05-20T03:00:13.374Z,12.50
2023-05-20T03:02:40.528Z,12.50
2023-05-20T03:05:08.230Z,12.50
2023-05-20T03:07:36.472Z,12.40
2023-05-20T03:10:05.027Z,12.50
2023-05-20T03:12:32.132Z,12.50
2023-05-20T03:15:00.358Z,12.50
2023-05-20T03:17:27.569Z,12.50
2023-05-20T03:19:54.609Z,12.60
2023-05-20T03:22:21.976Z,12.60
2023-05-20T03:24:49.081Z,12.60
2023-05-20T03:27:16.163Z,12.70
2023-05-20T03:29:43.271Z,12.70
2023-05-20T03:32:11.071Z,12.70
2023-05-20T03:34:38.465Z,12.70
2023-05-20T03:37:06.072Z,12.70
2023-05-20T03:39:33.134Z,12.80
2023-05-20T03:42:00.223Z,12.80
2023-05-20T03:44:27.338Z,12.80
2023-05-20T03:46:54.426Z,12.80
2023-05-20T03:49:21.897Z,12.80
2023-05-20T03:51:48.879Z,12.70
2023-05-20T03:54:17.509Z,12.80
2023-05-20T03:56:47.040Z,12.80
2023-05-20T03:59:14.025Z,12.80
2023-05-20T04:01:41.253Z,12.90
2023-05-20T04:04:08.613Z,12.90
2023-05-20T04:06:36.113Z,13.00
2023-05-20T04:09:03.771Z,13.00
2023-05-20T04:11:31.114Z,13.10
2023-05-20T04:14:00.480Z,13.10
2023-05-20T04:16:30.168Z,13.10
2023-05-20T04:18:59.335Z,13.10
2023-05-20T04:21:26.589Z,13.10
2023-05-20T04:23:53.624Z,13.20
2023-05-20T04:26:21.665Z,13.20
2023-05-20T04:28:49.788Z,13.20
2023-05-20T04:31:17.257Z,13.30
2023-05-20T04:33:44.642Z,13.30
2023-05-20T04:36:16.434Z,13.20
2023-05-20T04:38:44.773Z,13.20
2023-05-20T04:41:12.154Z,13.10
2023-05-20T04:43:40.494Z,13.20
2023-05-20T04:46:07.951Z,13.10
2023-05-20T04:48:35.416Z,13.10
2023-05-20T04:51:03.227Z,13.10
2023-05-20T04:53:33.977Z,13.20
2023-05-20T04:56:01.169Z,13.20
2023-05-20T04:58:30.244Z,13.30
2023-05-20T05:00:58.060Z,13.30
2023-05-20T05:03:25.032Z,13.40
2023-05-20T05:05:57.814Z,13.40
2023-05-20T05:08:26.988Z,13.40
2023-05-20T05:10:54.261Z,13.40
2023-05-20T05:13:21.318Z,13.40
2023-05-20T05:15:48.382Z,13.40
2023-05-20T05:18:18.799Z,13.50
2023-05-20T05:20:45.946Z,13.50
2023-05-20T05:23:13.196Z,13.60
2023-05-20T05:25:40.462Z,13.50
2023-05-20T05:28:07.500Z,13.60
2023-05-20T05:30:34.570Z,13.70
2023-05-20T05:33:01.832Z,13.70
2023-05-20T05:35:29.497Z,13.70
2023-05-20T05:37:57.012Z,13.70
2023-05-20T05:40:24.044Z,13.80
2023-05-20T05:42:51.248Z,13.80
2023-05-20T05:45:18.224Z,13.90
2023-05-20T05:47:46.075Z,13.90
2023-05-20T05:50:13.134Z,13.90
2023-05-20T05:52:40.170Z,13.90
2023-05-20T05:55:09.037Z,13.90
2023-05-20T05:57:36.247Z,14.00
2023-05-20T06:00:05.118Z,14.10
2023-05-20T06:02:36.522Z,14.20
2023-05-20T06:05:04.581Z,14.30
2023-05-20T06:07:31.962Z,14.40
2023-05-20T06:09:59.526Z,14.50
2023-05-20T06:12:29.565Z,14.50
2023-05-20T06:14:56.602Z,14.60
2023-05-20T06:17:23.858Z,14.60
2023-05-20T06:19:51.129Z,14.70
2023-05-20T06:22:18.166Z,14.70
2023-05-20T06:24:45.207Z,14.80
2023-05-20T06:27:12.673Z,14.90
2023-05-20T06:29:40.965Z,15.10
2023-05-20T06:32:10.235Z,15.10
2023-05-20T06:34:38.186Z,15.10
2023-05-20T06:37:05.966Z,15.10
2023-05-20T06:39:32.929Z,15.20
2023-05-20T06:42:02.997Z,15.30
2023-05-20T06:44:31.348Z,15.30
2023-05-20T06:46:58.455Z,15.40
2023-05-20T06:49:25.824Z,15.50
2023-05-20T06:51:52.848Z,15.50
2023-05-20T06:54:19.981Z,15.60
2023-05-20T06:56:47.029Z,15.70
2023-05-20T06:59:14.304Z,15.80
2023-05-20T07:01:41.624Z,15.90
2023-05-20T07:04:08.865Z,15.90
2023-05-20T07:06:36.201Z,16.00
2023-05-20T07:09:03.558Z,16.00
2023-05-20T07:11:30.726Z,16.10
2023-05-20T07:13:57.719Z,16.10
2023-05-20T07:16:24.953Z,16.10
2023-05-20T07:18:52.047Z,16.10
2023-05-20T07:21:19.333Z,16.10
2023-05-20T07:23:46.509Z,16.20
2023-05-20T07:26:13.687Z,16.30
2023-05-20T07:28:40.887Z,16.30
2023-05-20T07:31:11.748Z,16.30
2023-05-20T07:33:39.394Z,16.40
2023-05-20T07:36:08.019Z,16.50
2023-05-20T07:41:05.302Z,16.80
2023-05-20T07:43:32.524Z,17.00
2023-05-20T07:45:59.703Z,17.10
2023-05-20T07:48:27.387Z,17.20
2023-05-20T07:50:57.399Z,17.30
2023-05-20T07:53:24.432Z,17.40
2023-05-20T07:55:51.635Z,17.40
2023-05-20T07:58:18.745Z,17.50
2023-05-20T08:00:45.893Z,17.60
2023-05-20T08:03:14.266Z,17.70
2023-05-20T08:05:42.240Z,17.80
2023-05-20T08:08:10.661Z,17.80
2023-05-20T08:10:37.900Z,17.80
2023-05-20T08:13:05.237Z,17.80
2023-05-20T08:15:32.461Z,17.60
2023-05-20T08:17:59.670Z,17.70
2023-05-20T08:20:26.802Z,17.70
2023-05-20T08:22:53.882Z,17.80
2023-05-20T08:25:21.277Z,17.80
2023-05-20T08:27:48.372Z,17.80
2023-05-20T08:30:15.590Z,17.90
2023-05-20T08:32:42.839Z,17.90
2023-05-20T08:35:10.605Z,17.80
2023-05-20T08:37:37.877Z,17.90
2023-05-20T08:40:05.679Z,17.90
2023-05-20T08:42:32.695Z,17.90
2023-05-20T08:45:01.970Z,17.90
2023-05-20T08:47:29.313Z,18.00
2023-05-20T08:49:56.488Z,18.00
2023-05-20T08:52:24.882Z,18.00
2023-05-20T08:54:54.180Z,18.10
2023-05-20T08:57:22.488Z,18.10
2023-05-20T08:59:49.646Z,18.20
2023-05-20T09:02:16.886Z,18.20
2023-05-20T09:04:43.976Z,18.30
2023-05-20T09:07:11.251Z,18.50
2023-05-20T09:09:38.605Z,18.60
2023-05-20T09:12:06.256Z,18.70
2023-05-20T09:14:33.418Z,18.80
2023-05-20T09:17:00.688Z,18.90
2023-05-20T09:19:27.946Z,19.00
2023-05-20T09:21:55.548Z,19.10
2023-05-20T09:24:27.136Z,19.20
2023-05-20T09:26:54.552Z,19.30
2023-05-20T09:29:21.997Z,19.40
2023-05-20T09:31:50.596Z,19.40
2023-05-20T09:34:18.282Z,19.40
2023-05-20T09:36:45.960Z,19.50
2023-05-20T09:39:25.948Z,19.60
2023-05-20T09:42:10.146Z,19.70
2023-05-20T09:44:38.743Z,19.70
2023-05-20T09:47:08.817Z,19.50
2023-05-20T09:49:38.110Z,19.60
2023-05-20T09:52:06.269Z,19.50
2023-05-20T09:54:36.827Z,19.50
2023-05-20T09:57:05.892Z,19.40
2023-05-20T09:59:35.676Z,19.20
2023-05-20T10:02:03.217Z,19.10
2023-05-20T10:04:33.236Z,19.20
2023-05-20T10:07:00.804Z,19.30
2023-05-20T10:09:52.137Z,19.20
2023-05-20T10:12:38.418Z,19.30
2023-05-20T10:15:27.307Z,19.30
2023-05-20T10:18:16.589Z,19.20
2023-05-20T10:20:51.262Z,19.20
2023-05-20T10:23:29.057Z,19.30
2023-05-20T10:25:59.475Z,19.30
2023-05-20T10:28:38.533Z,19.30
2023-05-20T10:31:25.825Z,19.30
2023-05-20T10:33:54.567Z,19.20
2023-05-20T10:36:31.947Z,19.30
2023-05-20T10:39:00.901Z,19.40
2023-05-20T10:41:31.426Z,19.20
2023-05-20T10:44:05.322Z,19.30
2023-05-20T10:46:48.344Z,19.10
2023-05-20T10:49:25.195Z,19.00
2023-05-20T10:51:54.540Z,19.00
2023-05-20T10:54:23.448Z,19.10
2023-05-20T10:56:54.515Z,19.10
2023-05-20T10:59:22.804Z,19.30
2023-05-20T11:01:50.445Z,19.30
2023-05-20T11:04:19.530Z,19.40
2023-05-20T11:06:57.753Z,19.40
2023-05-20T11:09:25.054Z,19.40
2023-05-20T11:11:54.207Z,19.40
2023-05-20T11:14:22.659Z,19.50
2023-05-20T11:16:54.597Z,19.40
2023-05-20T11:19:22.014Z,19.30
2023-05-20T11:21:49.587Z,19.30
2023-05-20T11:24:26.866Z,19.20
2023-05-20T11:26:58.194Z,19.30
2023-05-20T11:29:29.213Z,19.30
2023-05-20T11:32:09.327Z,19.50
2023-05-20T11:34:38.463Z,19.60
2023-05-20T11:37:11.673Z,19.70
2023-05-20T11:39:39.407Z,19.80
2023-05-20T11:42:06.696Z,19.70
2023-05-20T11:44:34.479Z,19.70
2023-05-20T11:47:04.251Z,19.70
2023-05-20T11:49:40.128Z,19.60
2023-05-20T11:52:10.841Z,19.60
2023-05-20T11:54:37.928Z,19.60
2023-05-20T11:57:06.962Z,19.60
2023-05-20T11:59:34.860Z,19.70
2023-05-20T12:02:02.011Z,19.80
2023-05-20T12:04:29.203Z,19.90
2023-05-20T12:06:58.387Z,19.90
2023-05-20T12:09:25.531Z,19.80
2023-05-20T12:11:52.598Z,19.80
2023-05-20T12:14:19.786Z,19.70
2023-05-20T12:16:46.934Z,19.50
2023-05-20T12:19:16.086Z,19.40
2023-05-20T12:21:43.206Z,19.40
2023-05-20T12:24:11.197Z,19.40
2023-05-20T12:26:40.481Z,19.40
2023-05-20T12:29:07.960Z,19.30
2023-05-20T12:31:35.412Z,19.30
2023-05-20T12:34:03.360Z,19.50
2023-05-20T12:36:30.714Z,19.60
2023-05-20T12:38:57.722Z,19.60
2023-05-20T12:41:24.946Z,19.60
2023-05-20T12:43:52.626Z,19.70
2023-05-20T12:46:19.738Z,19.70
2023-05-20T12:48:47.070Z,19.70
2023-05-20T12:51:14.157Z,19.80
2023-05-20T12:53:41.207Z,19.70
2023-05-20T12:56:08.637Z,19.70
2023-05-20T12:58:36.283Z,19.80
2023-05-20T13:01:03.454Z,19.90
2023-05-20T13:03:30.901Z,19.90
2023-05-20T13:05:59.475Z,19.90
2023-05-20T13:08:28.451Z,19.80
2023-05-20T13:10:56.000Z,19.70
2023-05-20T13:13:23.855Z,19.80
2023-05-20T13:15:51.424Z,20.00
2023-05-20T13:18:19.400Z,20.10
2023-05-20T13:20:46.693Z,20.00
2023-05-20T13:23:13.882Z,20.00
2023-05-20T13:25:41.213Z,20.10
2023-05-20T13:28:10.341Z,20.10
2023-05-20T13:30:38.243Z,20.20
2023-05-20T13:33:05.695Z,20.10
2023-05-20T13:35:32.840Z,20.00
2023-05-20T13:37:59.871Z,20.00
2023-05-20T13:40:26.944Z,20.00
2023-05-20T13:42:54.627Z,19.90
2023-05-20T13:45:23.888Z,20.10
2023-05-20T13:47:51.423Z,20.20
2023-05-20T13:50:18.624Z,20.30
2023-05-20T13:52:45.827Z,20.30
2023-05-20T13:55:13.229Z,20.30
2023-05-20T13:57:40.391Z,20.20
2023-05-20T14:00:08.510Z,20.30
2023-05-20T14:02:35.966Z,20.40
2023-05-20T14:05:03.370Z,20.40
2023-05-20T14:07:30.526Z,20.40
2023-05-20T14:10:02.709Z,20.40
2023-05-20T14:12:30.012Z,20.50
2023-05-20T14:14:58.396Z,20.50
2023-05-20T14:17:26.060Z,20.50
2023-05-20T14:19:53.217Z,20.50
2023-05-20T14:22:20.879Z,20.40
2023-05-20T14:24:47.970Z,20.40
2023-05-20T14:27:15.278Z,20.40
2023-05-20T14:29:42.462Z,20.40
2023-05-20T14:32:11.548Z,20.40
2023-05-20T14:34:39.058Z,20.40
2023-05-20T14:37:09.843Z,20.40
2023-05-20T14:39:37.476Z,20.60
2023-05-20T14:42:05.638Z,20.50
2023-05-20T14:44:32.820Z,20.60
2023-05-20T14:46:59.887Z,20.70
2023-05-20T14:49:27.240Z,20.70
2023-05-20T14:51:54.749Z,20.80
2023-05-20T14:54:25.142Z,20.90
2023-05-20T14:56:52.429Z,21.00
2023-05-20T14:59:19.620Z,21.00
2023-05-20T15:01:46.730Z,21.10
2023-05-20T15:04:14.022Z,21.00
2023-05-20T15:06:41.686Z,20.80
2023-05-20T15:09:08.959Z,20.90
2023-05-20T15:11:36.530Z,21.00
2023-05-20T15:14:03.766Z,20.90
2023-05-20T15:16:33.512Z,21.00
2023-05-20T15:19:02.070Z,21.00
2023-05-20T15:21:29.831Z,21.10
2023-05-20T15:23:57.393Z,21.20
2023-05-20T15:26:26.275Z,21.20
2023-05-20T15:28:53.502Z,21.40
2023-05-20T15:31:20.840Z,21.40
2023-05-20T15:33:48.121Z,21.40
2023-05-20T15:36:15.585Z,21.50
2023-05-20T15:38:44.390Z,21.60
2023-05-20T15:41:13.636Z,21.70
2023-05-20T15:43:41.181Z,21.70
2023-05-20T15:46:08.526Z,21.60
2023-05-20T15:48:37.856Z,21.60
2023-05-20T15:51:05.759Z,21.60
2023-05-20T15:53:33.190Z,21.40
2023-05-20T15:56:00.348Z,21.30
2023-05-20T15:58:29.017Z,21.30
2023-05-20T16:00:56.532Z,21.30
2023-05-20T16:03:24.079Z,21.40
2023-05-20T16:05:52.371Z,21.40
2023-05-20T16:08:21.064Z,21.40
2023-05-20T16:10:48.108Z,21.40
2023-05-20T16:13:15.534Z,21.40
2023-05-20T16:15:42.629Z,21.50
2023-05-20T16:18:09.775Z,21.40
2023-05-20T16:20:36.943Z,21.40
2023-05-20T16:23:05.393Z,21.20
2023-05-20T16:25:32.590Z,21.00
2023-05-20T16:28:01.039Z,21.00
2023-05-20T16:30:29.503Z,21.00
2023-05-20T16:32:56.891Z,20.90
2023-05-20T16:35:24.101Z,20.90
2023-05-20T16:37:51.075Z,20.80
2023-05-20T16:40:18.231Z,20.80
2023-05-20T16:42:45.517Z,20.70
2023-05-20T16:45:12.703Z,20.70
2023-05-20T16:47:39.807Z,20.70
2023-05-20T16:50:07.897Z,20.80
2023-05-20T16:52:38.142Z,20.90
2023-05-20T16:55:08.197Z,20.80
2023-05-20T16:57:36.353Z,20.70
2023-05-20T17:00:08.251Z,20.70
2023-05-20T17:02:36.275Z,20.70
2023-05-20T17:05:04.451Z,20.60
2023-05-20T17:07:32.036Z,20.50
2023-05-20T17:09:59.437Z,20.50
2023-05-20T17:12:26.533Z,20.40
2023-05-20T17:14:54.679Z,20.40
2023-05-20T17:17:23.057Z,20.30
2023-05-20T17:19:50.292Z,20.30
2023-05-20T17:22:18.205Z,20.20
2023-05-20T17:24:45.552Z,20.20
2023-05-20T17:27:12.533Z,20.20
2023-05-20T17:29:39.673Z,20.20
2023-05-20T17:32:07.345Z,20.10
2023-05-20T17:34:34.488Z,20.10
2023-05-20T17:37:02.182Z,20.00
2023-05-20T17:39:29.704Z,20.00
2023-05-20T17:41:56.899Z,20.00
2023-05-20T17:44:25.663Z,20.00
2023-05-20T17:46:52.771Z,19.90
2023-05-20T17:49:19.837Z,19.90
2023-05-20T17:51:49.298Z,19.90
2023-05-20T17:54:16.758Z,19.80
2023-05-20T17:56:45.439Z,19.70
2023-05-20T17:59:12.573Z,19.70
2023-05-20T18:01:39.834Z,19.60
2023-05-20T18:04:07.856Z,19.50
2023-05-20T18:06:36.502Z,19.50
2023-05-20T18:09:06.031Z,19.50
2023-05-20T18:11:35.030Z,19.40
2023-05-20T18:14:02.965Z,19.40
2023-05-20T18:16:31.505Z,19.30
2023-05-20T18:18:58.957Z,19.20
2023-05-20T18:21:26.587Z,19.10
2023-05-20T18:23:53.720Z,19.10
2023-05-20T18:26:21.696Z,18.90
2023-05-20T18:28:49.948Z,18.80
2023-05-20T18:31:17.544Z,18.70
2023-05-20T18:33:44.655Z,18.70
2023-05-20T18:36:12.008Z,18.60
2023-05-20T18:38:41.349Z,18.60
2023-05-20T18:41:09.349Z,18.60
2023-05-20T18:43:36.681Z,18.50
2023-05-20T18:46:04.460Z,18.50
2023-05-20T18:48:32.044Z,18.40
2023-05-20T18:50:59.532Z,18.30
2023-05-20T18:53:26.802Z,18.30
2023-05-20T18:55:54.101Z,18.20
2023-05-20T18:58:22.356Z,18.10
2023-05-20T19:00:49.649Z,18.10
2023-05-20T19:03:17.239Z,18.00
2023-05-20T19:05:44.354Z,18.00
2023-05-20T19:08:11.926Z,18.00
2023-05-20T19:10:39.562Z,17.90
2023-05-20T19:13:06.707Z,17.80
2023-05-20T19:15:34.755Z,17.70
2023-05-20T19:18:02.138Z,17.70
2023-05-20T19:20:29.377Z,17.60
2023-05-20T19:22:56.537Z,17.50
2023-05-20T19:25:23.851Z,17.50
2023-05-20T19:27:51.258Z,17.40
2023-05-20T19:30:18.355Z,17.40
2023-05-20T19:32:45.542Z,17.30
2023-05-20T19:35:12.692Z,17.30
2023-05-20T19:37:39.893Z,17.20
2023-05-20T19:40:08.089Z,17.10
2023-05-20T19:42:35.733Z,17.00
2023-05-20T19:45:02.964Z,17.00
2023-05-20T19:47:30.568Z,17.00
2023-05-20T19:49:57.779Z,17.00
2023-05-20T19:52:25.160Z,17.00
2023-05-20T19:54:52.291Z,17.00
2023-05-20T19:57:19.374Z,16.90
2023-05-20T19:59:47.766Z,16.80
2023-05-20T20:02:14.985Z,16.80
2023-05-20T20:04:42.324Z,16.70
2023-05-20T20:07:09.537Z,16.70
2023-05-20T20:09:36.923Z,16.60
2023-05-20T20:12:05.356Z,16.60
2023-05-20T20:14:33.026Z,16.60
2023-05-20T20:17:00.522Z,16.60
2023-05-20T20:19:28.671Z,16.60
2023-05-20T20:21:56.720Z,16.50
2023-05-20T20:24:24.237Z,16.50
2023-05-20T20:26:54.189Z,16.50
2023-05-20T20:29:24.758Z,16.40
2023-05-20T20:31:52.446Z,16.40
2023-05-20T20:34:19.534Z,16.40
2023-05-20T20:36:47.243Z,16.30
2023-05-20T20:39:19.197Z,16.30
2023-05-20T20:41:50.636Z,16.30
2023-05-20T20:44:21.091Z,16.30
2023-05-20T20:46:52.363Z,16.30
2023-05-20T20:49:21.341Z,16.30
2023-05-20T20:51:51.900Z,16.20
2023-05-20T20:54:19.003Z,16.20
2023-05-20T20:56:47.242Z,16.10
2023-05-20T20:59:15.870Z,16.10
2023-05-20T21:01:45.371Z,16.00
2023-05-20T21:04:14.436Z,16.00
2023-05-20T21:06:42.791Z,16.00
2023-05-20T21:09:09.810Z,15.90
2023-05-20T21:11:42.452Z,16.00
2023-05-20T21:14:10.423Z,16.00
2023-05-20T21:16:38.045Z,15.90
2023-05-20T21:19:06.140Z,15.90
2023-05-20T21:21:33.326Z,15.90
2023-05-20T21:24:00.634Z,15.90
2023-05-20T21:26:27.662Z,15.80
2023-05-20T21:28:54.958Z,15.80
2023-05-20T21:31:22.115Z,15.70
2023-05-20T21:33:49.200Z,15.80
2023-05-20T21:36:16.450Z,15.80
2023-05-20T21:38:43.592Z,15.70
2023-05-20T21:41:10.830Z,15.60
2023-05-20T21:43:37.827Z,15.60
2023-05-20T21:46:06.179Z,15.60
2023-05-20T21:48:33.189Z,15.60
2023-05-20T21:51:00.890Z,15.70
2023-05-20T21:53:27.873Z,15.70
2023-05-20T21:55:55.056Z,15.70
2023-05-20T21:58:22.091Z,15.70
2023-05-20T22:00:49.390Z,15.70
2023-05-20T22:03:16.564Z,15.60
2023-05-20T22:05:46.351Z,15.60
2023-05-20T22:08:14.160Z,15.60
2023-05-20T22:10:41.603Z,15.60
2023-05-20T22:13:11.123Z,15.50
2023-05-20T22:15:38.283Z,15.50
2023-05-20T22:18:07.645Z,15.60
2023-05-20T22:20:35.135Z,15.60
2023-05-20T22:23:04.616Z,15.70
2023-05-20T22:25:32.327Z,15.70
2023-05-20T22:27:59.327Z,15.60
2023-05-20T22:30:26.459Z,15.70
2023-05-20T22:32:53.592Z,15.70
2023-05-20T22:35:23.949Z,15.70
2023-05-20T22:37:51.223Z,15.70
2023-05-20T22:40:18.363Z,15.70
2023-05-20T22:42:45.962Z,15.70
2023-05-20T22:45:13.099Z,15.70
2023-05-20T22:47:40.113Z,15.70
2023-05-20T22:50:08.895Z,15.70
2023-05-20T22:52:36.966Z,15.70
2023-05-20T22:55:04.363Z,15.80
2023-05-20T22:57:31.405Z,15.80
2023-05-20T22:59:58.676Z,15.80
2023-05-20T23:02:26.096Z,15.80
2023-05-20T23:04:53.435Z,15.80
2023-05-20T23:07:21.920Z,15.80
2023-05-20T23:09:49.212Z,15.80
2023-05-20T23:12:16.637Z,15.80
2023-05-20T23:14:43.635Z,15.70
2023-05-20T23:17:10.851Z,15.70
2023-05-20T23:19:37.954Z,15.80
2023-05-20T23:22:05.416Z,15.80
2023-05-20T23:24:32.410Z,15.90
2023-05-20T23:27:00.184Z,15.80
2023-05-20T23:29:27.343Z,15.80
2023-05-20T23:31:54.395Z,15.90
2023-05-20T23:34:22.008Z,15.90
2023-05-20T23:36:50.193Z,15.80
2023-05-20T23:39:18.548Z,15.80
2023-05-20T23:41:45.710Z,15.90
2023-05-20T23:44:12.691Z,15.90
2023-05-20T23:46:39.990Z,15.80
2023-05-20T23:49:10.286Z,15.90
2023-05-20T23:51:37.332Z,15.90
2023-05-20T23:54:04.662Z,15.90
2023-05-20T23:56:31.809Z,16.00
2023-05-20T23:58:59.020Z,16.00
